Search for airport 
image banner adimage banner adimage banner ad
image banner ad

1PA5 - Beaver Creek

Located in New Galilee, United States

ICAO - 1PA5, IATA -

Data provided by Airmate  

General information

Coordinates: N40°49'49" W80°24'49"
Elevation is 928 feet MSL.
Magnetic variation is -08° East
View others Airports in Pennsylvania

Operational data

Special qualification required
Current time UTC:
Current local time:
Weather at : KBVI - Beaver County ( 7 km )
METAR: KBVI 071255Z AUTO 34004KT 7SM -RA BKN003 OVC030 05/05 A2990 RMK AO2 T00540047
TAF: KBVI 071133Z 0712/0812 32004KT 6SM -SHRA OVC020 FM071300 32005KT 3SM -SHRA OVC010 TEMPO 0714/0716 OVC008 FM071700 31008G16KT P6SM -SHRA BKN015 FM071900 32009KT P6SM BKN025 FM072100 31008KT P6SM SCT040 FM080100 27003KT P6SM VCSH SCT100 FM080600 26004KT P6SM VCSH BKN015
View NOTAMs / SUP AIP / TFR affecting this airport [VIEW]
Communications frequencies: [VIEW]

Runways:

RWY identifierQFULength (ft)Width (ft)SurfaceLDA (ft)
121400130GRASS
301400130GRASS

Airport contact information

Address: New Galilee United States

Satellite view of 1PA5